Phnom Penh, Cambodia
Current Conditions -  °F | °C
As of 7:00 PM on Wednesday 22 Oct 2014 (Local Time) from VDPP Reporting Station
Broken Clouds Broken Clouds  
Wind Chill: 29°   Ceiling: 4000
Heat Index: 37°   Visibility: 6mi
Dew Point: 27°   Wind: 6mph
Humidity: 89%   Direction: 220°SW
Pressure: 29.8"   Gusts: NA
Location:  11.56°N, 104.92°E
Report Text: VDPP 221200Z 22005KT 9000 SCT015 FEW017CB BKN040 29/27 Q1009 CB:S/E/NE
Loading
Personal Weather Stations






























Interactive Weather Map
Tropical Storm Tracking
New forecast layout! Learn more

10-Day Weather Forecast

Advertisements
Track Severe Weather on mobile